Cooperative Ambassador — WDB9871 — position and weather

sailwx.info

Track history (hours):
 
Tides and Currents Weather Stations Pressure Air Temp Water Temp Dewpoint Dewpoint Depression Visibility Wind Speed Wind Dir Waves Ship Positions

Cooperative Ambassador

Owner: American River Transportation Company, St Louis, MO. More information available from US FCC via Universal Licensing System and Coast Guard Vessel Documentation Center.

Last reported at 2017-Aug-19 07:45 UTC. Time now 2017-Aug-20 21:02 UTC.
Position N 40°39' W 091°11'.

Length 43 m.

Type: Towing. MMSI: 366984260.

Date/timePositionNaut miles runAvg speedWind from/ knotsBaromVisibWave heightAir tempDewpointWater temp
2017-Aug-19 07:45N 40°39' W 091°11'4 4.5
2017-Aug-19 06:46N 40°42' W 091°07'2 4.5
2017-Aug-19 06:24N 40°43' W 091°07'2 4.7
2017-Aug-19 05:59N 40°45' W 091°06'2 4.8
2017-Aug-19 05:30N 40°47' W 091°06'2 4.8
2017-Aug-19 05:00N 40°50' W 091°05'0 0.2
2017-Aug-19 04:30N 40°50' W 091°05'0 0.0
2017-Aug-19 04:00N 40°50' W 091°05'0 0.0
2017-Aug-19 03:30N 40°50' W 091°05'0 0.0
2017-Aug-19 03:00N 40°50' W 091°05'0 0.0
2017-Aug-19 02:30N 40°50' W 091°05'0 0.0
2017-Aug-19 02:00N 40°50' W 091°05'0 0.0
2017-Aug-19 01:30N 40°50' W 091°05'0 0.0
2017-Aug-19 01:00N 40°50' W 091°05'0 0.0
2017-Aug-19 00:30N 40°50' W 091°05'0 0.0
2017-Aug-19 00:00N 40°50' W 091°05'0 0.0
2017-Aug-18 23:30N 40°50' W 091°05'0 0.0
2017-Aug-18 23:00N 40°50' W 091°05'0 0.0
2017-Aug-18 22:30N 40°50' W 091°05'2 3.3
2017-Aug-18 22:00N 40°51' W 091°03'2 4.7
2017-Aug-18 21:30N 40°53' W 091°02'0 0.3
2017-Aug-18 21:00N 40°53' W 091°01'0 0.0
2017-Aug-18 20:30N 40°53' W 091°01'0 0.8
2017-Aug-18 20:00N 40°53' W 091°01'0 0.0
2017-Aug-18 19:30N 40°53' W 091°01'0 0.0
2017-Aug-18 19:00N 40°53' W 091°01'0 0.0
2017-Aug-18 18:30N 40°53' W 091°01'0 0.0
2017-Aug-18 18:00N 40°53' W 091°01'0 0.0
2017-Aug-18 17:30N 40°53' W 091°01'1 1.4
2017-Aug-18 17:00N 40°54' W 091°01'2 4.7
2017-Aug-18 16:30N 40°55' W 090°58'2 4.9
2017-Aug-18 15:59N 40°58' W 090°57'2 4.6
2017-Aug-18 15:30N 40°60' W 090°57'3 5.3
2017-Aug-18 15:00N 41°02' W 090°56'3 5.1
2017-Aug-18 14:30N 41°05' W 090°57'3 0.6
2017-Aug-18 09:28N 41°08' W 090°58'2 4.3
2017-Aug-18 09:00N 41°06' W 090°57'2 4.4
2017-Aug-18 08:30N 41°04' W 090°57'2 4.4
2017-Aug-18 08:00N 41°02' W 090°57'2 4.4
2017-Aug-18 07:30N 40°59' W 090°57'2 4.5
2017-Aug-18 07:00N 40°57' W 090°57'2 4.8
2017-Aug-18 06:30N 40°55' W 090°58'2 3.9
2017-Aug-18 06:00N 40°54' W 091°01'1 2.5
2017-Aug-18 05:30N 40°53' W 091°01'1 2.1
2017-Aug-18 05:00N 40°52' W 091°02'2 4.2
2017-Aug-18 04:30N 40°50' W 091°04'1 1.5
2017-Aug-18 04:00N 40°50' W 091°05'0 0.9
2017-Aug-18 03:30N 40°50' W 091°05'2 3.5
2017-Aug-18 03:00N 40°48' W 091°06'2 3.3
2017-Aug-18 02:30N 40°46' W 091°06'115 2.6
2017-Aug-16 06:37N 38°55' W 090°31'1 5.3
2017-Aug-16 06:30N 38°55' W 090°30'3 5.9
2017-Aug-16 06:01N 38°57' W 090°28'0 0.2
2017-Aug-16 05:30N 38°57' W 090°28'0 0.0
2017-Aug-16 05:00N 38°57' W 090°28'0 0.9
2017-Aug-16 04:30N 38°57' W 090°28'3 6.3
2017-Aug-16 04:00N 38°58' W 090°23'3 5.7
2017-Aug-16 03:30N 38°56' W 090°20'5 0.2
2017-Aug-14 21:44N 38°55' W 090°13'0 0.0
2017-Aug-14 21:24N 38°55' W 090°13'0 0.9
2017-Aug-14 20:58N 38°55' W 090°14'2 4.3
2017-Aug-14 20:30N 38°55' W 090°16'2 4.3
2017-Aug-14 20:00N 38°56' W 090°19'2 4.7
2017-Aug-14 19:30N 38°57' W 090°22'2 4.3
2017-Aug-14 19:00N 38°58' W 090°24'3 5.7
2017-Aug-14 18:30N 38°57' W 090°28'3 5.4
2017-Aug-14 18:00N 38°55' W 090°30'  
2017-Aug-11 16:51N 40°38' W 091°11'4 4.9
2017-Aug-11 16:08N 40°40' W 091°07'1 4.8
2017-Aug-11 15:50N 40°42' W 091°07'3 4.3
2017-Aug-11 15:02N 40°45' W 091°06'0 4.7
2017-Aug-11 14:56N 40°46' W 091°06'5 5.1
2017-Aug-11 14:00N 40°50' W 091°04'3 5.6
2017-Aug-11 13:30N 40°52' W 091°02'1 1.3
2017-Aug-11 13:00N 40°53' W 091°01'0 0.1
2017-Aug-11 12:30N 40°53' W 091°01'0 0.1
2017-Aug-11 12:00N 40°53' W 091°01'0 0.2
2017-Aug-11 11:30N 40°53' W 091°01'0 0.4
2017-Aug-11 11:00N 40°53' W 091°01'1 2.6
2017-Aug-11 10:30N 40°54' W 091°00'2 4.1
2017-Aug-11 10:00N 40°55' W 090°58'2 3.7
2017-Aug-11 09:30N 40°57' W 090°57'2 4.3
2017-Aug-11 09:00N 40°59' W 090°57'2 4.8
2017-Aug-11 08:30N 41°01' W 090°57'3 5.8
2017-Aug-11 08:00N 41°04' W 090°57'3 5.4
2017-Aug-11 07:30N 41°07' W 090°58'3 5.7
2017-Aug-11 06:56N 41°10' W 090°60'4 1.4
2017-Aug-11 03:59N 41°12' W 091°04'  
Track history (hours):
 
Tides and Currents Weather Stations Pressure Air Temp Water Temp Dewpoint Dewpoint Depression Visibility Wind Speed Wind Dir Waves Ship Positions

Cooperative Ambassador

Owner: American River Transportation Company, St Louis, MO. More information available from US FCC via Universal Licensing System and Coast Guard Vessel Documentation Center.

Last reported at 2017-Aug-19 07:45 UTC. Time now 2017-Aug-20 21:02 UTC.
Position N 40°39' W 091°11'.

Length 43 m.

Type: Towing. MMSI: 366984260.

Date/timePositionNaut miles runAvg speedWind from/ knotsBaromVisibWave heightAir tempDewpointWater temp
2017-Aug-19 07:45N 40°39' W 091°11'4 4.5
2017-Aug-19 06:46N 40°42' W 091°07'2 4.5
2017-Aug-19 06:24N 40°43' W 091°07'2 4.7
2017-Aug-19 05:59N 40°45' W 091°06'2 4.8
2017-Aug-19 05:30N 40°47' W 091°06'2 4.8
2017-Aug-19 05:00N 40°50' W 091°05'0 0.2
2017-Aug-19 04:30N 40°50' W 091°05'0 0.0
2017-Aug-19 04:00N 40°50' W 091°05'0 0.0
2017-Aug-19 03:30N 40°50' W 091°05'0 0.0
2017-Aug-19 03:00N 40°50' W 091°05'0 0.0
2017-Aug-19 02:30N 40°50' W 091°05'0 0.0
2017-Aug-19 02:00N 40°50' W 091°05'0 0.0
2017-Aug-19 01:30N 40°50' W 091°05'0 0.0
2017-Aug-19 01:00N 40°50' W 091°05'0 0.0
2017-Aug-19 00:30N 40°50' W 091°05'0 0.0
2017-Aug-19 00:00N 40°50' W 091°05'0 0.0
2017-Aug-18 23:30N 40°50' W 091°05'0 0.0
2017-Aug-18 23:00N 40°50' W 091°05'0 0.0
2017-Aug-18 22:30N 40°50' W 091°05'2 3.3
2017-Aug-18 22:00N 40°51' W 091°03'2 4.7
2017-Aug-18 21:30N 40°53' W 091°02'0 0.3
2017-Aug-18 21:00N 40°53' W 091°01'0 0.0
2017-Aug-18 20:30N 40°53' W 091°01'0 0.8
2017-Aug-18 20:00N 40°53' W 091°01'0 0.0
2017-Aug-18 19:30N 40°53' W 091°01'0 0.0
2017-Aug-18 19:00N 40°53' W 091°01'0 0.0
2017-Aug-18 18:30N 40°53' W 091°01'0 0.0
2017-Aug-18 18:00N 40°53' W 091°01'0 0.0
2017-Aug-18 17:30N 40°53' W 091°01'1 1.4
2017-Aug-18 17:00N 40°54' W 091°01'2 4.7
2017-Aug-18 16:30N 40°55' W 090°58'2 4.9
2017-Aug-18 15:59N 40°58' W 090°57'2 4.6
2017-Aug-18 15:30N 40°60' W 090°57'3 5.3
2017-Aug-18 15:00N 41°02' W 090°56'3 5.1
2017-Aug-18 14:30N 41°05' W 090°57'3 0.6
2017-Aug-18 09:28N 41°08' W 090°58'2 4.3
2017-Aug-18 09:00N 41°06' W 090°57'2 4.4
2017-Aug-18 08:30N 41°04' W 090°57'2 4.4
2017-Aug-18 08:00N 41°02' W 090°57'2 4.4
2017-Aug-18 07:30N 40°59' W 090°57'2 4.5
2017-Aug-18 07:00N 40°57' W 090°57'2 4.8
2017-Aug-18 06:30N 40°55' W 090°58'2 3.9
2017-Aug-18 06:00N 40°54' W 091°01'1 2.5
2017-Aug-18 05:30N 40°53' W 091°01'1 2.1
2017-Aug-18 05:00N 40°52' W 091°02'2 4.2
2017-Aug-18 04:30N 40°50' W 091°04'1 1.5
2017-Aug-18 04:00N 40°50' W 091°05'0 0.9
2017-Aug-18 03:30N 40°50' W 091°05'2 3.5
2017-Aug-18 03:00N 40°48' W 091°06'2 3.3
2017-Aug-18 02:30N 40°46' W 091°06'115 2.6
2017-Aug-16 06:37N 38°55' W 090°31'1 5.3
2017-Aug-16 06:30N 38°55' W 090°30'3 5.9
2017-Aug-16 06:01N 38°57' W 090°28'0 0.2
2017-Aug-16 05:30N 38°57' W 090°28'0 0.0
2017-Aug-16 05:00N 38°57' W 090°28'0 0.9
2017-Aug-16 04:30N 38°57' W 090°28'3 6.3
2017-Aug-16 04:00N 38°58' W 090°23'3 5.7
2017-Aug-16 03:30N 38°56' W 090°20'5 0.2
2017-Aug-14 21:44N 38°55' W 090°13'0 0.0
2017-Aug-14 21:24N 38°55' W 090°13'0 0.9
2017-Aug-14 20:58N 38°55' W 090°14'2 4.3
2017-Aug-14 20:30N 38°55' W 090°16'2 4.3
2017-Aug-14 20:00N 38°56' W 090°19'2 4.7
2017-Aug-14 19:30N 38°57' W 090°22'2 4.3
2017-Aug-14 19:00N 38°58' W 090°24'3 5.7
2017-Aug-14 18:30N 38°57' W 090°28'3 5.4
2017-Aug-14 18:00N 38°55' W 090°30'  
2017-Aug-11 16:51N 40°38' W 091°11'4 4.9
2017-Aug-11 16:08N 40°40' W 091°07'1 4.8
2017-Aug-11 15:50N 40°42' W 091°07'3 4.3
2017-Aug-11 15:02N 40°45' W 091°06'0 4.7
2017-Aug-11 14:56N 40°46' W 091°06'5 5.1
2017-Aug-11 14:00N 40°50' W 091°04'3 5.6
2017-Aug-11 13:30N 40°52' W 091°02'1 1.3
2017-Aug-11 13:00N 40°53' W 091°01'0 0.1
2017-Aug-11 12:30N 40°53' W 091°01'0 0.1
2017-Aug-11 12:00N 40°53' W 091°01'0 0.2
2017-Aug-11 11:30N 40°53' W 091°01'0 0.4
2017-Aug-11 11:00N 40°53' W 091°01'1 2.6
2017-Aug-11 10:30N 40°54' W 091°00'2 4.1
2017-Aug-11 10:00N 40°55' W 090°58'2 3.7
2017-Aug-11 09:30N 40°57' W 090°57'2 4.3
2017-Aug-11 09:00N 40°59' W 090°57'2 4.8
2017-Aug-11 08:30N 41°01' W 090°57'3 5.8
2017-Aug-11 08:00N 41°04' W 090°57'3 5.4
2017-Aug-11 07:30N 41°07' W 090°58'3 5.7
2017-Aug-11 06:56N 41°10' W 090°60'4 1.4
2017-Aug-11 03:59N 41°12' W 091°04'  

Dump ship's entire track history